sensor_id;sensor_type;location;lat;lon;timestamp;temperature;humidity
7574;DHT22;3828;48.922;9.116;2023-03-31T00:00:17;11.20;99.90
7574;DHT22;3828;48.922;9.116;2023-03-31T00:05:11;11.10;99.90
7574;DHT22;3828;48.922;9.116;2023-03-31T00:10:11;11.10;99.90
7574;DHT22;3828;48.922;9.116;2023-03-31T00:15:06;11.10;99.90
7574;DHT22;3828;48.922;9.116;2023-03-31T00:22:37;11.00;99.90
7574;DHT22;3828;48.922;9.116;2023-03-31T00:25:07;11.00;99.90
7574;DHT22;3828;48.922;9.116;2023-03-31T00:27:35;13.60;99.90
7574;DHT22;3828;48.922;9.116;2023-03-31T00:30:03;11.00;99.90
7574;DHT22;3828;48.922;9.116;2023-03-31T00:42:21;11.00;99.90
7574;DHT22;3828;48.922;9.116;2023-03-31T00:45:21;11.00;99.90
7574;DHT22;3828;48.922;9.116;2023-03-31T00:47:52;11.00;99.90
7574;DHT22;3828;48.922;9.116;2023-03-31T00:50:22;11.00;99.90
7574;DHT22;3828;48.922;9.116;2023-03-31T00:52:54;10.80;99.90
7574;DHT22;3828;48.922;9.116;2023-03-31T00:55:24;11.00;99.90
7574;DHT22;3828;48.922;9.116;2023-03-31T01:00:24;11.00;99.90
7574;DHT22;3828;48.922;9.116;2023-03-31T01:02:54;11.20;99.90
7574;DHT22;3828;48.922;9.116;2023-03-31T01:05:26;11.40;99.90
7574;DHT22;3828;48.922;9.116;2023-03-31T01:07:55;11.50;99.90
7574;DHT22;3828;48.922;9.116;2023-03-31T01:12:53;11.70;99.90
7574;DHT22;3828;48.922;9.116;2023-03-31T01:15:21;11.80;99.90
7574;DHT22;3828;48.922;9.116;2023-03-31T01:17:51;15.40;99.90
7574;DHT22;3828;48.922;9.116;2023-03-31T01:20:25;11.80;99.90
7574;DHT22;3828;48.922;9.116;2023-03-31T01:26:26;12.00;99.90
7574;DHT22;3828;48.922;9.116;2023-03-31T01:29:07;12.00;99.90
7574;DHT22;3828;48.922;9.116;2023-03-31T01:35:20;12.20;99.90
7574;DHT22;3828;48.922;9.116;2023-03-31T01:38:27;12.50;99.90
7574;DHT22;3828;48.922;9.116;2023-03-31T01:41:17;12.50;99.90
7574;DHT22;3828;48.922;9.116;2023-03-31T01:43:52;12.60;99.90
7574;DHT22;3828;48.922;9.116;2023-03-31T01:46:27;12.60;99.90
7574;DHT22;3828;48.922;9.116;2023-03-31T01:49:00;12.70;99.90
7574;DHT22;3828;48.922;9.116;2023-03-31T01:51:34;12.70;99.90
7574;DHT22;3828;48.922;9.116;2023-03-31T01:54:07;12.70;99.90
7574;DHT22;3828;48.922;9.116;2023-03-31T01:56:40;12.70;99.90
7574;DHT22;3828;48.922;9.116;2023-03-31T01:59:11;14.30;99.90
7574;DHT22;3828;48.922;9.116;2023-03-31T02:01:43;12.50;99.90
7574;DHT22;3828;48.922;9.116;2023-03-31T02:04:16;13.10;99.90
7574;DHT22;3828;48.922;9.116;2023-03-31T02:06:46;12.50;99.90
7574;DHT22;3828;48.922;9.116;2023-03-31T02:09:19;12.40;99.90
7574;DHT22;3828;48.922;9.116;2023-03-31T02:11:49;12.40;99.90
7574;DHT22;3828;48.922;9.116;2023-03-31T02:14:19;12.30;99.90
7574;DHT22;3828;48.922;9.116;2023-03-31T02:16:51;12.40;99.90
7574;DHT22;3828;48.922;9.116;2023-03-31T02:19:25;12.40;99.90
7574;DHT22;3828;48.922;9.116;2023-03-31T02:21:54;12.40;99.90
7574;DHT22;3828;48.922;9.116;2023-03-31T02:24:24;12.40;99.90
7574;DHT22;3828;48.922;9.116;2023-03-31T02:26:59;12.30;99.90
7574;DHT22;3828;48.922;9.116;2023-03-31T02:31:59;12.20;99.90
7574;DHT22;3828;48.922;9.116;2023-03-31T02:36:54;12.20;99.90
7574;DHT22;3828;48.922;9.116;2023-03-31T02:39:24;12.10;99.90
7574;DHT22;3828;48.922;9.116;2023-03-31T02:41:54;12.10;99.90
7574;DHT22;3828;48.922;9.116;2023-03-31T02:44:22;12.10;99.90
7574;DHT22;3828;48.922;9.116;2023-03-31T02:46:51;12.00;99.90
7574;DHT22;3828;48.922;9.116;2023-03-31T02:49:18;11.90;99.90
7574;DHT22;3828;48.922;9.116;2023-03-31T02:55:14;11.60;99.90
7574;DHT22;3828;48.922;9.116;2023-03-31T02:58:05;11.60;99.90
7574;DHT22;3828;48.922;9.116;2023-03-31T03:00:48;11.40;99.90
7574;DHT22;3828;48.922;9.116;2023-03-31T03:03:27;11.40;99.90
7574;DHT22;3828;48.922;9.116;2023-03-31T03:06:02;11.30;99.90
7574;DHT22;3828;48.922;9.116;2023-03-31T03:08:44;11.30;99.90
7574;DHT22;3828;48.922;9.116;2023-03-31T03:11:21;11.20;99.90
7574;DHT22;3828;48.922;9.116;2023-03-31T03:13:59;11.20;99.90
7574;DHT22;3828;48.922;9.116;2023-03-31T03:16:31;11.10;99.90
7574;DHT22;3828;48.922;9.116;2023-03-31T03:19:01;11.00;99.90
7574;DHT22;3828;48.922;9.116;2023-03-31T03:28:54;10.80;99.90
7574;DHT22;3828;48.922;9.116;2023-03-31T03:31:22;10.80;99.90
7574;DHT22;3828;48.922;9.116;2023-03-31T03:36:18;10.70;99.90
7574;DHT22;3828;48.922;9.116;2023-03-31T03:46:08;10.60;99.90
7574;DHT22;3828;48.922;9.116;2023-03-31T03:51:02;10.60;99.90
7574;DHT22;3828;48.922;9.116;2023-03-31T04:03:20;10.70;99.90
7574;DHT22;3828;48.922;9.116;2023-03-31T04:05:47;10.60;99.90
7574;DHT22;3828;48.922;9.116;2023-03-31T04:10:43;10.60;99.90
7574;DHT22;3828;48.922;9.116;2023-03-31T04:18:05;10.40;99.90
7574;DHT22;3828;48.922;9.116;2023-03-31T04:20:36;10.30;99.90
7574;DHT22;3828;48.922;9.116;2023-03-31T04:30:32;10.50;99.90
7574;DHT22;3828;48.922;9.116;2023-03-31T04:33:01;10.50;99.90
7574;DHT22;3828;48.922;9.116;2023-03-31T04:35:31;10.50;99.90
7574;DHT22;3828;48.922;9.116;2023-03-31T04:38:15;9.50;99.90
7574;DHT22;3828;48.922;9.116;2023-03-31T04:40:45;10.50;99.90
7574;DHT22;3828;48.922;9.116;2023-03-31T04:43:13;10.50;99.90
7574;DHT22;3828;48.922;9.116;2023-03-31T04:45:41;10.40;99.90
7574;DHT22;3828;48.922;9.116;2023-03-31T04:48:10;10.40;99.90
7574;DHT22;3828;48.922;9.116;2023-03-31T04:53:04;10.50;99.90
7574;DHT22;3828;48.922;9.116;2023-03-31T04:55:33;10.50;99.90
7574;DHT22;3828;48.922;9.116;2023-03-31T04:58:07;10.50;99.90
7574;DHT22;3828;48.922;9.116;2023-03-31T05:12:51;10.70;99.90
7574;DHT22;3828;48.922;9.116;2023-03-31T05:22:39;10.80;99.90
7574;DHT22;3828;48.922;9.116;2023-03-31T05:25:08;10.70;99.90
7574;DHT22;3828;48.922;9.116;2023-03-31T05:30:06;10.50;99.90
7574;DHT22;3828;48.922;9.116;2023-03-31T05:47:17;10.10;99.90
7574;DHT22;3828;48.922;9.116;2023-03-31T06:04:31;9.90;99.90
7574;DHT22;3828;48.922;9.116;2023-03-31T06:09:34;9.90;99.90
7574;DHT22;3828;48.922;9.116;2023-03-31T06:21:51;9.90;99.90
7574;DHT22;3828;48.922;9.116;2023-03-31T06:31:39;10.00;99.90
7574;DHT22;3828;48.922;9.116;2023-03-31T06:39:01;10.10;99.90
7574;DHT22;3828;48.922;9.116;2023-03-31T06:56:12;10.00;99.90
7574;DHT22;3828;48.922;9.116;2023-03-31T07:10:58;10.10;99.90
7574;DHT22;3828;48.922;9.116;2023-03-31T07:13:27;10.20;99.90
7574;DHT22;3828;48.922;9.116;2023-03-31T07:20:51;10.10;99.90
7574;DHT22;3828;48.922;9.116;2023-03-31T07:25:45;10.10;99.90
7574;DHT22;3828;48.922;9.116;2023-03-31T07:30:41;10.40;99.90
7574;DHT22;3828;48.922;9.116;2023-03-31T07:33:09;10.50;99.90
7574;DHT22;3828;48.922;9.116;2023-03-31T07:35:37;10.60;99.90
7574;DHT22;3828;48.922;9.116;2023-03-31T07:45:26;11.00;99.90
7574;DHT22;3828;48.922;9.116;2023-03-31T07:47:54;11.30;99.90
7574;DHT22;3828;48.922;9.116;2023-03-31T07:50:21;11.60;99.90
7574;DHT22;3828;48.922;9.116;2023-03-31T07:55:16;11.60;99.90
7574;DHT22;3828;48.922;9.116;2023-03-31T08:00:13;12.20;99.90
7574;DHT22;3828;48.922;9.116;2023-03-31T08:02:41;12.50;99.90
7574;DHT22;3828;48.922;9.116;2023-03-31T08:05:10;12.90;99.90
7574;DHT22;3828;48.922;9.116;2023-03-31T08:07:41;13.20;99.90
7574;DHT22;3828;48.922;9.116;2023-03-31T08:10:10;13.30;99.90
7574;DHT22;3828;48.922;9.116;2023-03-31T08:15:06;13.10;99.90
7574;DHT22;3828;48.922;9.116;2023-03-31T08:22:30;13.60;99.90
7574;DHT22;3828;48.922;9.116;2023-03-31T08:27:24;14.30;99.90
7574;DHT22;3828;48.922;9.116;2023-03-31T08:32:21;14.50;99.90
7574;DHT22;3828;48.922;9.116;2023-03-31T08:34:50;14.60;99.90
7574;DHT22;3828;48.922;9.116;2023-03-31T08:39:45;14.70;99.90
7574;DHT22;3828;48.922;9.116;2023-03-31T08:42:15;13.60;99.90
7574;DHT22;3828;48.922;9.116;2023-03-31T08:44:55;15.00;99.90
7574;DHT22;3828;48.922;9.116;2023-03-31T08:47:26;15.70;99.90
7574;DHT22;3828;48.922;9.116;2023-03-31T08:49:58;16.20;99.90
7574;DHT22;3828;48.922;9.116;2023-03-31T08:52:30;16.20;99.90
7574;DHT22;3828;48.922;9.116;2023-03-31T08:55:03;16.20;99.90
7574;DHT22;3828;48.922;9.116;2023-03-31T08:57:37;16.50;99.90
7574;DHT22;3828;48.922;9.116;2023-03-31T09:00:13;16.40;99.90
7574;DHT22;3828;48.922;9.116;2023-03-31T09:02:43;16.60;99.90
7574;DHT22;3828;48.922;9.116;2023-03-31T09:05:30;16.60;99.90
7574;DHT22;3828;48.922;9.116;2023-03-31T09:08:05;16.60;99.90
7574;DHT22;3828;48.922;9.116;2023-03-31T09:10:42;16.50;99.90
7574;DHT22;3828;48.922;9.116;2023-03-31T09:13:46;16.50;99.90
7574;DHT22;3828;48.922;9.116;2023-03-31T09:16:23;16.20;99.90
7574;DHT22;3828;48.922;9.116;2023-03-31T09:18:52;16.10;99.90
7574;DHT22;3828;48.922;9.116;2023-03-31T09:21:24;16.00;99.90
7574;DHT22;3828;48.922;9.116;2023-03-31T09:23:55;16.00;99.90
7574;DHT22;3828;48.922;9.116;2023-03-31T09:26:31;16.30;99.90
7574;DHT22;3828;48.922;9.116;2023-03-31T09:29:01;16.10;99.90
7574;DHT22;3828;48.922;9.116;2023-03-31T09:31:34;15.50;99.90
7574;DHT22;3828;48.922;9.116;2023-03-31T09:34:11;15.30;99.90
7574;DHT22;3828;48.922;9.116;2023-03-31T09:41:34;15.90;99.90
7574;DHT22;3828;48.922;9.116;2023-03-31T09:46:30;16.20;99.90
7574;DHT22;3828;48.922;9.116;2023-03-31T09:49:01;16.40;99.90
7574;DHT22;3828;48.922;9.116;2023-03-31T09:51:33;16.10;99.90
7574;DHT22;3828;48.922;9.116;2023-03-31T09:54:12;15.80;99.90
7574;DHT22;3828;48.922;9.116;2023-03-31T09:56:49;15.60;99.90
7574;DHT22;3828;48.922;9.116;2023-03-31T09:59:20;15.60;99.90
7574;DHT22;3828;48.922;9.116;2023-03-31T10:01:50;15.30;99.90
7574;DHT22;3828;48.922;9.116;2023-03-31T10:04:20;15.40;99.90
7574;DHT22;3828;48.922;9.116;2023-03-31T10:09:18;15.30;99.90
7574;DHT22;3828;48.922;9.116;2023-03-31T10:11:58;15.20;99.90
7574;DHT22;3828;48.922;9.116;2023-03-31T10:14:34;15.10;99.90
7574;DHT22;3828;48.922;9.116;2023-03-31T10:17:05;15.20;99.90
7574;DHT22;3828;48.922;9.116;2023-03-31T10:19:33;15.30;99.90
7574;DHT22;3828;48.922;9.116;2023-03-31T10:22:02;15.30;99.90
7574;DHT22;3828;48.922;9.116;2023-03-31T10:24:37;15.10;99.90
7574;DHT22;3828;48.922;9.116;2023-03-31T10:27:12;14.70;99.90
7574;DHT22;3828;48.922;9.116;2023-03-31T10:32:17;14.10;99.90
7574;DHT22;3828;48.922;9.116;2023-03-31T10:34:45;13.90;99.90
7574;DHT22;3828;48.922;9.116;2023-03-31T10:37:15;13.80;99.90
7574;DHT22;3828;48.922;9.116;2023-03-31T10:42:19;13.70;99.90
7574;DHT22;3828;48.922;9.116;2023-03-31T10:47:18;13.80;99.90
7574;DHT22;3828;48.922;9.116;2023-03-31T10:49:48;14.30;99.90
7574;DHT22;3828;48.922;9.116;2023-03-31T10:52:19;14.90;99.90
7574;DHT22;3828;48.922;9.116;2023-03-31T10:54:48;15.40;99.90
7574;DHT22;3828;48.922;9.116;2023-03-31T10:57:18;15.80;99.90
7574;DHT22;3828;48.922;9.116;2023-03-31T10:59:57;16.10;99.90
7574;DHT22;3828;48.922;9.116;2023-03-31T11:02:43;16.10;99.90
7574;DHT22;3828;48.922;9.116;2023-03-31T11:05:14;15.70;99.90
7574;DHT22;3828;48.922;9.116;2023-03-31T11:07:53;15.40;99.90
7574;DHT22;3828;48.922;9.116;2023-03-31T11:10:43;15.20;99.90
7574;DHT22;3828;48.922;9.116;2023-03-31T11:13:19;15.10;99.90
7574;DHT22;3828;48.922;9.116;2023-03-31T11:15:54;14.70;99.90
7574;DHT22;3828;48.922;9.116;2023-03-31T11:18:35;13.60;99.90
7574;DHT22;3828;48.922;9.116;2023-03-31T11:21:15;12.40;99.90
7574;DHT22;3828;48.922;9.116;2023-03-31T11:23:52;11.20;99.90
7574;DHT22;3828;48.922;9.116;2023-03-31T11:26:30;10.30;99.90
7574;DHT22;3828;48.922;9.116;2023-03-31T11:29:11;9.80;99.90
7574;DHT22;3828;48.922;9.116;2023-03-31T11:31:45;9.50;99.90
7574;DHT22;3828;48.922;9.116;2023-03-31T11:34:26;9.40;99.90
7574;DHT22;3828;48.922;9.116;2023-03-31T11:37:13;9.30;99.90
7574;DHT22;3828;48.922;9.116;2023-03-31T11:39:49;9.50;99.90
7574;DHT22;3828;48.922;9.116;2023-03-31T11:42:25;9.60;99.90
7574;DHT22;3828;48.922;9.116;2023-03-31T11:44:57;9.90;99.90
7574;DHT22;3828;48.922;9.116;2023-03-31T11:47:29;10.10;99.90
7574;DHT22;3828;48.922;9.116;2023-03-31T11:49:59;10.40;99.90
7574;DHT22;3828;48.922;9.116;2023-03-31T11:52:29;10.70;99.90
7574;DHT22;3828;48.922;9.116;2023-03-31T11:55:00;10.90;99.90
7574;DHT22;3828;48.922;9.116;2023-03-31T11:57:31;10.90;99.90
7574;DHT22;3828;48.922;9.116;2023-03-31T12:00:05;11.10;99.90
7574;DHT22;3828;48.922;9.116;2023-03-31T12:02:39;11.20;99.90
7574;DHT22;3828;48.922;9.116;2023-03-31T12:05:11;11.50;99.90
7574;DHT22;3828;48.922;9.116;2023-03-31T12:07:41;12.40;99.90
7574;DHT22;3828;48.922;9.116;2023-03-31T12:10:18;12.90;99.90
7574;DHT22;3828;48.922;9.116;2023-03-31T12:12:50;14.20;99.90
7574;DHT22;3828;48.922;9.116;2023-03-31T12:15:23;15.30;99.90
7574;DHT22;3828;48.922;9.116;2023-03-31T12:17:56;15.20;99.90
7574;DHT22;3828;48.922;9.116;2023-03-31T12:20:31;15.00;99.90
7574;DHT22;3828;48.922;9.116;2023-03-31T12:23:01;14.10;99.90
7574;DHT22;3828;48.922;9.116;2023-03-31T12:25:54;14.10;99.90
7574;DHT22;3828;48.922;9.116;2023-03-31T12:28:24;14.80;99.90
7574;DHT22;3828;48.922;9.116;2023-03-31T12:30:54;15.40;99.90
7574;DHT22;3828;48.922;9.116;2023-03-31T12:33:26;15.20;99.90
7574;DHT22;3828;48.922;9.116;2023-03-31T12:36:08;15.10;99.90
7574;DHT22;3828;48.922;9.116;2023-03-31T12:38:46;15.50;99.90
7574;DHT22;3828;48.922;9.116;2023-03-31T12:41:22;16.00;99.90
7574;DHT22;3828;48.922;9.116;2023-03-31T12:44:06;16.50;99.90
7574;DHT22;3828;48.922;9.116;2023-03-31T12:49:42;15.20;99.90
7574;DHT22;3828;48.922;9.116;2023-03-31T12:52:17;15.00;99.90
7574;DHT22;3828;48.922;9.116;2023-03-31T12:55:00;15.00;99.90
7574;DHT22;3828;48.922;9.116;2023-03-31T12:57:34;15.20;99.90
7574;DHT22;3828;48.922;9.116;2023-03-31T13:00:22;15.70;99.90
7574;DHT22;3828;48.922;9.116;2023-03-31T13:02:49;16.40;99.90
7574;DHT22;3828;48.922;9.116;2023-03-31T13:05:49;16.60;99.90
7574;DHT22;3828;48.922;9.116;2023-03-31T13:08:51;15.60;99.90
7574;DHT22;3828;48.922;9.116;2023-03-31T13:11:19;14.70;99.90
7574;DHT22;3828;48.922;9.116;2023-03-31T13:13:57;14.10;99.90
7574;DHT22;3828;48.922;9.116;2023-03-31T13:18:52;12.80;99.90
7574;DHT22;3828;48.922;9.116;2023-03-31T13:21:21;12.40;99.90
7574;DHT22;3828;48.922;9.116;2023-03-31T13:23:49;12.30;99.90
7574;DHT22;3828;48.922;9.116;2023-03-31T13:26:39;12.60;99.90
7574;DHT22;3828;48.922;9.116;2023-03-31T13:29:18;12.50;99.90
7574;DHT22;3828;48.922;9.116;2023-03-31T13:32:15;12.40;99.90
7574;DHT22;3828;48.922;9.116;2023-03-31T13:34:48;12.70;99.90
7574;DHT22;3828;48.922;9.116;2023-03-31T13:37:51;13.10;99.90
7574;DHT22;3828;48.922;9.116;2023-03-31T13:43:52;14.80;99.90
7574;DHT22;3828;48.922;9.116;2023-03-31T13:46:48;15.60;99.90
7574;DHT22;3828;48.922;9.116;2023-03-31T13:49:52;15.60;99.90
7574;DHT22;3828;48.922;9.116;2023-03-31T13:52:34;14.40;99.90
7574;DHT22;3828;48.922;9.116;2023-03-31T13:55:16;13.70;99.90
7574;DHT22;3828;48.922;9.116;2023-03-31T14:00:42;13.00;99.90
7574;DHT22;3828;48.922;9.116;2023-03-31T14:03:31;12.80;99.90
7574;DHT22;3828;48.922;9.116;2023-03-31T14:06:01;13.00;99.90
7574;DHT22;3828;48.922;9.116;2023-03-31T14:08:42;13.20;99.90
7574;DHT22;3828;48.922;9.116;2023-03-31T14:11:21;13.50;99.90
7574;DHT22;3828;48.922;9.116;2023-03-31T14:14:02;13.50;99.90
7574;DHT22;3828;48.922;9.116;2023-03-31T14:16:32;13.80;99.90
7574;DHT22;3828;48.922;9.116;2023-03-31T14:19:12;14.10;99.90
7574;DHT22;3828;48.922;9.116;2023-03-31T14:21:48;14.80;99.90
7574;DHT22;3828;48.922;9.116;2023-03-31T14:24:23;14.90;99.90
7574;DHT22;3828;48.922;9.116;2023-03-31T14:26:58;15.00;99.90
7574;DHT22;3828;48.922;9.116;2023-03-31T14:29:32;15.40;99.90
7574;DHT22;3828;48.922;9.116;2023-03-31T14:32:10;15.90;99.90
7574;DHT22;3828;48.922;9.116;2023-03-31T14:34:48;16.00;99.90
7574;DHT22;3828;48.922;9.116;2023-03-31T14:37:18;16.60;99.90
7574;DHT22;3828;48.922;9.116;2023-03-31T14:39:50;17.30;99.90
7574;DHT22;3828;48.922;9.116;2023-03-31T14:42:21;17.30;99.90
7574;DHT22;3828;48.922;9.116;2023-03-31T14:44:54;17.10;99.90
7574;DHT22;3828;48.922;9.116;2023-03-31T14:47:23;16.90;99.90
7574;DHT22;3828;48.922;9.116;2023-03-31T14:49:58;16.20;99.90
7574;DHT22;3828;48.922;9.116;2023-03-31T14:52:29;15.70;99.90
7574;DHT22;3828;48.922;9.116;2023-03-31T14:54:58;15.90;99.90
7574;DHT22;3828;48.922;9.116;2023-03-31T14:57:28;16.30;99.90
7574;DHT22;3828;48.922;9.116;2023-03-31T14:59:57;15.90;99.90
7574;DHT22;3828;48.922;9.116;2023-03-31T15:02:30;15.30;99.90
7574;DHT22;3828;48.922;9.116;2023-03-31T15:05:02;14.80;99.90
7574;DHT22;3828;48.922;9.116;2023-03-31T15:09:58;14.80;99.90
7574;DHT22;3828;48.922;9.116;2023-03-31T15:12:27;15.00;99.90
7574;DHT22;3828;48.922;9.116;2023-03-31T15:14:56;14.60;99.90
7574;DHT22;3828;48.922;9.116;2023-03-31T15:17:26;16.80;99.90
7574;DHT22;3828;48.922;9.116;2023-03-31T15:19:55;14.20;99.90
7574;DHT22;3828;48.922;9.116;2023-03-31T15:22:23;14.00;99.90
7574;DHT22;3828;48.922;9.116;2023-03-31T15:27:32;13.70;99.90
7574;DHT22;3828;48.922;9.116;2023-03-31T15:30:02;14.00;99.90
7574;DHT22;3828;48.922;9.116;2023-03-31T15:32:33;14.40;99.90
7574;DHT22;3828;48.922;9.116;2023-03-31T15:35:00;14.40;99.90
7574;DHT22;3828;48.922;9.116;2023-03-31T15:37:30;14.40;99.90
7574;DHT22;3828;48.922;9.116;2023-03-31T15:40:03;14.20;99.90
7574;DHT22;3828;48.922;9.116;2023-03-31T15:42:36;14.10;99.90
7574;DHT22;3828;48.922;9.116;2023-03-31T15:48:16;13.90;99.90
7574;DHT22;3828;48.922;9.116;2023-03-31T15:53:26;14.00;99.90
7574;DHT22;3828;48.922;9.116;2023-03-31T15:55:55;14.00;99.90
7574;DHT22;3828;48.922;9.116;2023-03-31T15:58:46;13.90;99.90
7574;DHT22;3828;48.922;9.116;2023-03-31T16:01:14;13.80;99.90
7574;DHT22;3828;48.922;9.116;2023-03-31T16:03:43;13.70;99.90
7574;DHT22;3828;48.922;9.116;2023-03-31T16:06:18;13.60;99.90
7574;DHT22;3828;48.922;9.116;2023-03-31T16:08:49;13.50;99.90
7574;DHT22;3828;48.922;9.116;2023-03-31T16:11:19;13.40;99.90
7574;DHT22;3828;48.922;9.116;2023-03-31T16:13:53;13.40;99.90
7574;DHT22;3828;48.922;9.116;2023-03-31T16:16:23;13.30;99.90
7574;DHT22;3828;48.922;9.116;2023-03-31T16:18:54;13.30;99.90
7574;DHT22;3828;48.922;9.116;2023-03-31T16:21:27;13.30;99.90
7574;DHT22;3828;48.922;9.116;2023-03-31T16:23:57;13.20;99.90
7574;DHT22;3828;48.922;9.116;2023-03-31T16:26:26;13.10;99.90
7574;DHT22;3828;48.922;9.116;2023-03-31T16:28:55;13.00;99.90
7574;DHT22;3828;48.922;9.116;2023-03-31T16:31:28;12.90;99.90
7574;DHT22;3828;48.922;9.116;2023-03-31T16:33:57;12.80;99.90
7574;DHT22;3828;48.922;9.116;2023-03-31T16:43:48;12.50;99.90
7574;DHT22;3828;48.922;9.116;2023-03-31T16:46:20;12.50;99.90
7574;DHT22;3828;48.922;9.116;2023-03-31T16:56:09;12.30;99.90
7574;DHT22;3828;48.922;9.116;2023-03-31T16:58:37;12.20;99.90
7574;DHT22;3828;48.922;9.116;2023-03-31T17:01:05;12.20;99.90
7574;DHT22;3828;48.922;9.116;2023-03-31T17:03:34;12.10;99.90
7574;DHT22;3828;48.922;9.116;2023-03-31T17:06:05;12.00;99.90
7574;DHT22;3828;48.922;9.116;2023-03-31T17:11:01;11.80;99.90
7574;DHT22;3828;48.922;9.116;2023-03-31T17:20:51;11.50;99.90
7574;DHT22;3828;48.922;9.116;2023-03-31T17:25:46;11.40;99.90
7574;DHT22;3828;48.922;9.116;2023-03-31T17:28:13;11.30;99.90
7574;DHT22;3828;48.922;9.116;2023-03-31T17:38:05;11.10;99.90
7574;DHT22;3828;48.922;9.116;2023-03-31T17:55:20;10.50;99.90
7574;DHT22;3828;48.922;9.116;2023-03-31T18:00:15;10.20;99.90
7574;DHT22;3828;48.922;9.116;2023-03-31T18:10:06;10.00;99.90
7574;DHT22;3828;48.922;9.116;2023-03-31T18:12:35;10.00;99.90
7574;DHT22;3828;48.922;9.116;2023-03-31T18:15:03;9.90;99.90
7574;DHT22;3828;48.922;9.116;2023-03-31T18:29:51;10.30;99.90
7574;DHT22;3828;48.922;9.116;2023-03-31T18:47:06;9.40;99.90
7574;DHT22;3828;48.922;9.116;2023-03-31T18:52:01;9.30;99.90
7574;DHT22;3828;48.922;9.116;2023-03-31T19:04:19;9.10;99.90
7574;DHT22;3828;48.922;9.116;2023-03-31T19:21:36;9.30;99.90
7574;DHT22;3828;48.922;9.116;2023-03-31T19:38:47;9.40;99.90
7574;DHT22;3828;48.922;9.116;2023-03-31T19:53:35;9.70;99.90
7574;DHT22;3828;48.922;9.116;2023-03-31T19:56:06;9.90;99.90
7574;DHT22;3828;48.922;9.116;2023-03-31T20:01:02;10.10;99.90
7574;DHT22;3828;48.922;9.116;2023-03-31T20:06:04;10.30;99.90
7574;DHT22;3828;48.922;9.116;2023-03-31T20:13:28;10.40;99.90
7574;DHT22;3828;48.922;9.116;2023-03-31T20:15:58;10.50;99.90
7574;DHT22;3828;48.922;9.116;2023-03-31T20:21:01;10.50;99.90
7574;DHT22;3828;48.922;9.116;2023-03-31T20:30:53;10.30;99.90
7574;DHT22;3828;48.922;9.116;2023-03-31T20:40:44;10.20;99.90
7574;DHT22;3828;48.922;9.116;2023-03-31T20:48:09;10.10;99.90
7574;DHT22;3828;48.922;9.116;2023-03-31T21:05:22;10.00;99.90
7574;DHT22;3828;48.922;9.116;2023-03-31T21:10:16;9.90;99.90
7574;DHT22;3828;48.922;9.116;2023-03-31T21:17:41;9.80;99.90
7574;DHT22;3828;48.922;9.116;2023-03-31T21:20:09;9.80;99.90
7574;DHT22;3828;48.922;9.116;2023-03-31T21:22:37;9.90;99.90
7574;DHT22;3828;48.922;9.116;2023-03-31T21:25:06;9.90;99.90
7574;DHT22;3828;48.922;9.116;2023-03-31T21:39:53;9.80;99.90
7574;DHT22;3828;48.922;9.116;2023-03-31T21:54:42;9.80;99.90
7574;DHT22;3828;48.922;9.116;2023-03-31T21:57:10;9.90;99.90
7574;DHT22;3828;48.922;9.116;2023-03-31T22:14:22;9.90;99.90
7574;DHT22;3828;48.922;9.116;2023-03-31T22:24:11;9.90;99.90
7574;DHT22;3828;48.922;9.116;2023-03-31T22:31:33;10.00;99.90
7574;DHT22;3828;48.922;9.116;2023-03-31T22:36:31;9.90;99.90
7574;DHT22;3828;48.922;9.116;2023-03-31T22:48:50;9.70;99.90
7574;DHT22;3828;48.922;9.116;2023-03-31T22:53:48;9.60;99.90
7574;DHT22;3828;48.922;9.116;2023-03-31T22:58:42;9.60;99.90
7574;DHT22;3828;48.922;9.116;2023-03-31T23:01:11;9.60;99.90
7574;DHT22;3828;48.922;9.116;2023-03-31T23:06:09;9.70;99.90
7574;DHT22;3828;48.922;9.116;2023-03-31T23:11:05;9.60;99.90
7574;DHT22;3828;48.922;9.116;2023-03-31T23:13:33;9.60;99.90
7574;DHT22;3828;48.922;9.116;2023-03-31T23:16:03;9.50;99.90
7574;DHT22;3828;48.922;9.116;2023-03-31T23:21:03;9.60;99.90
7574;DHT22;3828;48.922;9.116;2023-03-31T23:23:34;9.50;99.90
7574;DHT22;3828;48.922;9.116;2023-03-31T23:26:33;9.50;99.90
7574;DHT22;3828;48.922;9.116;2023-03-31T23:31:37;9.40;99.90
7574;DHT22;3828;48.922;9.116;2023-03-31T23:36:36;9.30;99.90
7574;DHT22;3828;48.922;9.116;2023-03-31T23:39:05;9.30;99.90
7574;DHT22;3828;48.922;9.116;2023-03-31T23:47:13;9.20;99.90
7574;DHT22;3828;48.922;9.116;2023-03-31T23:54:35;9.30;99.90
